UAE601 OPKC-OMDB
Flight info
| Callsign | UAE601 |
|---|---|
| Flight time | 1h 55m |
| Altitude | 40000 |
| Route | MELOM A454 PASOV B540 KUPMA/N0417F240 B540 MIVEK P574 IMPED |
| Aircraft | A359/H-SDE2E3GHIJ3J4J5LM1ORWXY/LB1D1 |
Departure
| Time | 2026-04-21 08:42 |
|---|---|
| Airport | Jinnah International Airport (OPKC) |
Arrival
| Time | 2026-04-21 10:37 |
|---|---|
| Airport | Dubai International Airport (OMDB) |
| Time | Latitude | Longitude | Altitude | Speed | Heading |
|---|---|---|---|---|---|
| 2026-04-21 08:03 | 24.90151 | 67.16517 | 107 ft | 0 kts | 87° |
| 2026-04-21 08:30 | 24.90149 | 67.16495 | 107 ft | 4 kts | 81° |
| 2026-04-21 08:30 | 24.90143 | 67.16467 | 106 ft | 4 kts | 67° |
| 2026-04-21 08:30 | 24.90130 | 67.16442 | 105 ft | 4 kts | 40° |
| 2026-04-21 08:31 | 24.90111 | 67.16433 | 105 ft | 2 kts | 341° |
| 2026-04-21 08:31 | 24.90109 | 67.16433 | 105 ft | 0 kts | 339° |
| 2026-04-21 08:37 | 24.90116 | 67.16431 | 104 ft | 3 kts | 340° |
| 2026-04-21 08:37 | 24.90169 | 67.16412 | 104 ft | 10 kts | 343° |
| 2026-04-21 08:37 | 24.90245 | 67.16388 | 107 ft | 12 kts | 344° |
| 2026-04-21 08:37 | 24.90327 | 67.16363 | 106 ft | 11 kts | 345° |
| 2026-04-21 08:38 | 24.90393 | 67.16390 | 105 ft | 11 kts | 57° |
| 2026-04-21 08:38 | 24.90420 | 67.16477 | 108 ft | 13 kts | 74° |
| 2026-04-21 08:38 | 24.90447 | 67.16581 | 106 ft | 15 kts | 74° |
| 2026-04-21 08:38 | 24.90477 | 67.16702 | 107 ft | 17 kts | 74° |
| 2026-04-21 08:39 | 24.90511 | 67.16837 | 107 ft | 19 kts | 74° |
| 2026-04-21 08:39 | 24.90549 | 67.16988 | 108 ft | 21 kts | 74° |
| 2026-04-21 08:39 | 24.90591 | 67.17148 | 107 ft | 18 kts | 74° |
| 2026-04-21 08:39 | 24.90627 | 67.17290 | 108 ft | 20 kts | 74° |
| 2026-04-21 08:40 | 24.90671 | 67.17404 | 106 ft | 10 kts | 49° |
| 2026-04-21 08:40 | 24.90732 | 67.17454 | 107 ft | 11 kts | 33° |
| 2026-04-21 08:40 | 24.90805 | 67.17486 | 110 ft | 11 kts | 12° |
| 2026-04-21 08:40 | 24.90861 | 67.17455 | 111 ft | 8 kts | 288° |
| 2026-04-21 08:41 | 24.90851 | 67.17388 | 111 ft | 14 kts | 256° |
| 2026-04-21 08:41 | 24.90770 | 67.17067 | 110 ft | 77 kts | 254° |
| 2026-04-21 08:41 | 24.90566 | 67.16274 | 109 ft | 136 kts | 255° |
| 2026-04-21 08:41 | 24.90376 | 67.15553 | 314 ft | 150 kts | 250° |
| 2026-04-21 08:42 | 24.90031 | 67.14478 | 1041 ft | 147 kts | 250° |
| 2026-04-21 08:42 | 24.89424 | 67.13550 | 1663 ft | 152 kts | 229° |
| 2026-04-21 08:42 | 24.88714 | 67.12707 | 2321 ft | 152 kts | 231° |
| 2026-04-21 08:42 | 24.87948 | 67.11780 | 2595 ft | 176 kts | 230° |
| 2026-04-21 08:43 | 24.87066 | 67.10709 | 2836 ft | 202 kts | 229° |
| 2026-04-21 08:43 | 24.86065 | 67.09497 | 3106 ft | 225 kts | 232° |
| 2026-04-21 08:43 | 24.84970 | 67.08166 | 3450 ft | 241 kts | 231° |
| 2026-04-21 08:43 | 24.83827 | 67.06775 | 3925 ft | 249 kts | 231° |
| 2026-04-21 08:44 | 24.82654 | 67.05344 | 4420 ft | 254 kts | 229° |
| 2026-04-21 08:44 | 24.81455 | 67.03888 | 4935 ft | 259 kts | 229° |
| 2026-04-21 08:44 | 24.80244 | 67.02415 | 5500 ft | 259 kts | 228° |
| 2026-04-21 08:44 | 24.79053 | 67.00927 | 6100 ft | 260 kts | 231° |
| 2026-04-21 08:45 | 24.78214 | 66.99163 | 6573 ft | 264 kts | 255° |
| 2026-04-21 08:45 | 24.78099 | 66.97100 | 6812 ft | 279 kts | 275° |
| 2026-04-21 08:45 | 24.78327 | 66.94939 | 7119 ft | 290 kts | 278° |
| 2026-04-21 08:45 | 24.78599 | 66.92709 | 7516 ft | 297 kts | 278° |
| 2026-04-21 08:46 | 24.78865 | 66.90435 | 7974 ft | 303 kts | 278° |
| 2026-04-21 08:46 | 24.79125 | 66.88137 | 8561 ft | 302 kts | 277° |
| 2026-04-21 08:46 | 24.79377 | 66.85832 | 9041 ft | 307 kts | 277° |
| 2026-04-21 08:46 | 24.79629 | 66.83492 | 9580 ft | 309 kts | 277° |
| 2026-04-21 08:47 | 24.80002 | 66.81167 | 10071 ft | 312 kts | 287° |
| 2026-04-21 08:47 | 24.80990 | 66.79016 | 10238 ft | 322 kts | 311° |
| 2026-04-21 08:47 | 24.82554 | 66.77197 | 10430 ft | 334 kts | 319° |
| 2026-04-21 08:47 | 24.84279 | 66.75414 | 10598 ft | 347 kts | 319° |
| 2026-04-21 08:48 | 24.86068 | 66.73570 | 10810 ft | 357 kts | 319° |
| 2026-04-21 08:48 | 24.87886 | 66.71677 | 11166 ft | 362 kts | 318° |
| 2026-04-21 08:48 | 24.89712 | 66.69765 | 11618 ft | 363 kts | 318° |
| 2026-04-21 08:48 | 24.91540 | 66.67843 | 12111 ft | 363 kts | 317° |
| 2026-04-21 08:49 | 24.93367 | 66.65917 | 12591 ft | 364 kts | 317° |
| 2026-04-21 08:49 | 24.95197 | 66.63986 | 13047 ft | 365 kts | 316° |
| 2026-04-21 08:49 | 24.97033 | 66.62047 | 13479 ft | 367 kts | 316° |
| 2026-04-21 08:49 | 24.98877 | 66.60098 | 13892 ft | 367 kts | 316° |
| 2026-04-21 08:50 | 25.00721 | 66.58149 | 14259 ft | 368 kts | 316° |
| 2026-04-21 08:50 | 25.02573 | 66.56189 | 14661 ft | 370 kts | 315° |
| 2026-04-21 08:50 | 25.04343 | 66.54131 | 15034 ft | 371 kts | 308° |
| 2026-04-21 08:50 | 25.05754 | 66.51799 | 15384 ft | 371 kts | 296° |
| 2026-04-21 08:51 | 25.06741 | 66.49131 | 15781 ft | 372 kts | 288° |
| 2026-04-21 08:51 | 25.07474 | 66.46390 | 16174 ft | 372 kts | 284° |
| 2026-04-21 08:51 | 25.08087 | 66.43670 | 16653 ft | 370 kts | 283° |
| 2026-04-21 08:51 | 25.08666 | 66.40896 | 16965 ft | 374 kts | 282° |
| 2026-04-21 08:52 | 25.09242 | 66.38090 | 17335 ft | 374 kts | 282° |
| 2026-04-21 08:52 | 25.09828 | 66.35277 | 17647 ft | 378 kts | 282° |
| 2026-04-21 08:52 | 25.10430 | 66.32448 | 17963 ft | 381 kts | 282° |
| 2026-04-21 08:52 | 25.11045 | 66.29613 | 18363 ft | 380 kts | 283° |
| 2026-04-21 08:53 | 25.11669 | 66.26766 | 18679 ft | 383 kts | 283° |
| 2026-04-21 08:53 | 25.12297 | 66.23919 | 19251 ft | 383 kts | 282° |
| 2026-04-21 08:53 | 25.12931 | 66.21045 | 19708 ft | 389 kts | 282° |
| 2026-04-21 08:53 | 25.13573 | 66.18137 | 20214 ft | 391 kts | 283° |
| 2026-04-21 08:54 | 25.14219 | 66.15200 | 20642 ft | 397 kts | 283° |
| 2026-04-21 08:54 | 25.14871 | 66.12235 | 21214 ft | 398 kts | 282° |
| 2026-04-21 08:54 | 25.15522 | 66.09272 | 21856 ft | 398 kts | 282° |
| 2026-04-21 08:54 | 25.16175 | 66.06295 | 22402 ft | 401 kts | 282° |
| 2026-04-21 08:55 | 25.16831 | 66.03302 | 22982 ft | 403 kts | 282° |
| 2026-04-21 08:55 | 25.17493 | 66.00274 | 23424 ft | 408 kts | 282° |
| 2026-04-21 08:55 | 25.18161 | 65.97212 | 23856 ft | 412 kts | 282° |
| 2026-04-21 08:55 | 25.18835 | 65.94119 | 24299 ft | 415 kts | 282° |
| 2026-04-21 08:56 | 25.19512 | 65.91020 | 24872 ft | 416 kts | 282° |
| 2026-04-21 08:56 | 25.20190 | 65.87907 | 25389 ft | 417 kts | 282° |
| 2026-04-21 08:56 | 25.20870 | 65.84784 | 25875 ft | 420 kts | 282° |
| 2026-04-21 08:56 | 25.21555 | 65.81629 | 26316 ft | 424 kts | 282° |
| 2026-04-21 08:57 | 25.22244 | 65.78452 | 26782 ft | 427 kts | 282° |
| 2026-04-21 08:57 | 25.22938 | 65.75251 | 27244 ft | 430 kts | 282° |
| 2026-04-21 08:57 | 25.23637 | 65.72025 | 27720 ft | 433 kts | 282° |
| 2026-04-21 08:57 | 25.24338 | 65.68784 | 28184 ft | 435 kts | 282° |
| 2026-04-21 08:58 | 25.25033 | 65.65566 | 28630 ft | 438 kts | 282° |
| 2026-04-21 08:58 | 25.25744 | 65.62277 | 29060 ft | 441 kts | 282° |
| 2026-04-21 08:58 | 25.26467 | 65.58922 | 29478 ft | 445 kts | 282° |
| 2026-04-21 08:58 | 25.27177 | 65.55626 | 29872 ft | 448 kts | 282° |
| 2026-04-21 08:59 | 25.27899 | 65.52266 | 30250 ft | 451 kts | 282° |
| 2026-04-21 08:59 | 25.28625 | 65.48887 | 30630 ft | 453 kts | 282° |
| 2026-04-21 08:59 | 25.29353 | 65.45500 | 31008 ft | 455 kts | 282° |
| 2026-04-21 08:59 | 25.30083 | 65.42092 | 31374 ft | 456 kts | 282° |
| 2026-04-21 09:00 | 25.30816 | 65.38672 | 31754 ft | 458 kts | 282° |
| 2026-04-21 09:00 | 25.31552 | 65.35245 | 32142 ft | 459 kts | 282° |
| 2026-04-21 09:00 | 25.32287 | 65.31808 | 32480 ft | 461 kts | 282° |
| 2026-04-21 09:00 | 25.33022 | 65.28355 | 32800 ft | 463 kts | 282° |
| 2026-04-21 09:01 | 25.33760 | 65.24885 | 33135 ft | 464 kts | 282° |
| 2026-04-21 09:01 | 25.34498 | 65.21409 | 33471 ft | 465 kts | 282° |
| 2026-04-21 09:01 | 25.35238 | 65.17921 | 33777 ft | 467 kts | 282° |
| 2026-04-21 09:01 | 25.35979 | 65.14423 | 34031 ft | 468 kts | 282° |
| 2026-04-21 09:02 | 25.36724 | 65.10907 | 34261 ft | 470 kts | 282° |
| 2026-04-21 09:02 | 25.37470 | 65.07378 | 34501 ft | 472 kts | 282° |
| 2026-04-21 09:02 | 25.38217 | 65.03849 | 34814 ft | 471 kts | 282° |
| 2026-04-21 09:03 | 25.39699 | 64.96823 | 35523 ft | 468 kts | 282° |
| 2026-04-21 09:03 | 25.40436 | 64.93325 | 35864 ft | 466 kts | 282° |
| 2026-04-21 09:03 | 25.41077 | 64.89818 | 36156 ft | 465 kts | 277° |
| 2026-04-21 09:03 | 25.41347 | 64.86261 | 36409 ft | 464 kts | 270° |
| 2026-04-21 09:04 | 25.41171 | 64.82708 | 36683 ft | 463 kts | 262° |
| 2026-04-21 09:04 | 25.40537 | 64.79224 | 36952 ft | 462 kts | 256° |
| 2026-04-21 09:04 | 25.39685 | 64.75799 | 37219 ft | 462 kts | 254° |
| 2026-04-21 09:04 | 25.38759 | 64.72398 | 37483 ft | 461 kts | 253° |
| 2026-04-21 09:05 | 25.37801 | 64.69017 | 37748 ft | 460 kts | 253° |
| 2026-04-21 09:05 | 25.36836 | 64.65645 | 37991 ft | 460 kts | 253° |
| 2026-04-21 09:05 | 25.35874 | 64.62274 | 38235 ft | 459 kts | 253° |
| 2026-04-21 09:05 | 25.34921 | 64.58906 | 38475 ft | 459 kts | 253° |
| 2026-04-21 09:06 | 25.33975 | 64.55542 | 38673 ft | 458 kts | 253° |
| 2026-04-21 09:06 | 25.33034 | 64.52179 | 38840 ft | 458 kts | 253° |
| 2026-04-21 09:06 | 25.32094 | 64.48814 | 38989 ft | 458 kts | 253° |
| 2026-04-21 09:06 | 25.31156 | 64.45450 | 39146 ft | 458 kts | 253° |
| 2026-04-21 09:07 | 25.30216 | 64.42085 | 39287 ft | 458 kts | 254° |
| 2026-04-21 09:07 | 25.29275 | 64.38720 | 39434 ft | 458 kts | 254° |
| 2026-04-21 09:07 | 25.28332 | 64.35354 | 39572 ft | 458 kts | 254° |
| 2026-04-21 09:07 | 25.27387 | 64.31984 | 39648 ft | 460 kts | 254° |
| 2026-04-21 09:08 | 25.26439 | 64.28604 | 39765 ft | 461 kts | 254° |
| 2026-04-21 09:08 | 25.25488 | 64.25222 | 39840 ft | 461 kts | 254° |
| 2026-04-21 09:08 | 25.23588 | 64.18468 | 39849 ft | 460 kts | 254° |
| 2026-04-21 09:09 | 25.21697 | 64.11764 | 39848 ft | 460 kts | 254° |
| 2026-04-21 09:09 | 25.19792 | 64.05019 | 39848 ft | 460 kts | 254° |
| 2026-04-21 09:10 | 25.17882 | 63.98272 | 39848 ft | 461 kts | 254° |
| 2026-04-21 09:10 | 25.15955 | 63.91477 | 39849 ft | 461 kts | 254° |
| 2026-04-21 09:11 | 25.14052 | 63.84778 | 39847 ft | 461 kts | 254° |
| 2026-04-21 09:11 | 25.12131 | 63.78032 | 39847 ft | 461 kts | 254° |
| 2026-04-21 09:12 | 25.10208 | 63.71290 | 39845 ft | 461 kts | 254° |
| 2026-04-21 09:12 | 25.08282 | 63.64549 | 39845 ft | 461 kts | 254° |
| 2026-04-21 09:13 | 25.06351 | 63.57803 | 39846 ft | 461 kts | 254° |
| 2026-04-21 09:13 | 25.04417 | 63.51061 | 39845 ft | 461 kts | 254° |
| 2026-04-21 09:14 | 25.02481 | 63.44323 | 39848 ft | 461 kts | 254° |
| 2026-04-21 09:14 | 25.00540 | 63.37585 | 39848 ft | 461 kts | 254° |
| 2026-04-21 09:15 | 24.98597 | 63.30849 | 39848 ft | 461 kts | 254° |
| 2026-04-21 09:15 | 24.96651 | 63.24115 | 39850 ft | 461 kts | 254° |
| 2026-04-21 09:16 | 24.94702 | 63.17383 | 39849 ft | 461 kts | 254° |
| 2026-04-21 09:16 | 24.92750 | 63.10656 | 39846 ft | 461 kts | 254° |
| 2026-04-21 09:17 | 24.90793 | 63.03921 | 39850 ft | 462 kts | 254° |
| 2026-04-21 09:17 | 24.88830 | 62.97179 | 39848 ft | 462 kts | 254° |
| 2026-04-21 09:18 | 24.86866 | 62.90448 | 39848 ft | 462 kts | 254° |
| 2026-04-21 09:18 | 24.84898 | 62.83714 | 39848 ft | 462 kts | 254° |
| 2026-04-21 09:19 | 24.82938 | 62.77018 | 39844 ft | 464 kts | 254° |
| 2026-04-21 09:19 | 24.80953 | 62.70251 | 39847 ft | 465 kts | 254° |
| 2026-04-21 09:20 | 24.78964 | 62.63483 | 39845 ft | 465 kts | 254° |
| 2026-04-21 09:20 | 24.76971 | 62.56713 | 39847 ft | 465 kts | 254° |
| 2026-04-21 09:21 | 24.74974 | 62.49946 | 39852 ft | 466 kts | 254° |
| 2026-04-21 09:21 | 24.72968 | 62.43154 | 39854 ft | 468 kts | 254° |
| 2026-04-21 09:22 | 24.70952 | 62.36345 | 39851 ft | 468 kts | 254° |
| 2026-04-21 09:22 | 24.68934 | 62.29542 | 39838 ft | 468 kts | 254° |
| 2026-04-21 09:23 | 24.66912 | 62.22738 | 39837 ft | 468 kts | 254° |
| 2026-04-21 09:23 | 24.64886 | 62.15932 | 39843 ft | 469 kts | 254° |
| 2026-04-21 09:24 | 24.62854 | 62.09120 | 39846 ft | 469 kts | 254° |
| 2026-04-21 09:24 | 24.60819 | 62.02308 | 39844 ft | 469 kts | 254° |
| 2026-04-21 09:25 | 24.58782 | 61.95504 | 39841 ft | 469 kts | 254° |
| 2026-04-21 09:25 | 24.56739 | 61.88694 | 39841 ft | 470 kts | 254° |
| 2026-04-21 09:26 | 24.54693 | 61.81881 | 39840 ft | 470 kts | 254° |
| 2026-04-21 09:26 | 24.52639 | 61.75059 | 39839 ft | 470 kts | 254° |
| 2026-04-21 09:27 | 24.50584 | 61.68242 | 39840 ft | 470 kts | 254° |
| 2026-04-21 09:27 | 24.48524 | 61.61424 | 39842 ft | 470 kts | 254° |
| 2026-04-21 09:28 | 24.46477 | 61.54659 | 39842 ft | 470 kts | 254° |
| 2026-04-21 09:28 | 24.44412 | 61.47848 | 39841 ft | 470 kts | 254° |
| 2026-04-21 09:29 | 24.42344 | 61.41039 | 39845 ft | 470 kts | 254° |
| 2026-04-21 09:29 | 24.40300 | 61.34226 | 39837 ft | 469 kts | 257° |
| 2026-04-21 09:30 | 24.38987 | 61.28466 | 39832 ft | 468 kts | 259° |
| 2026-04-21 09:30 | 24.37524 | 61.21511 | 39837 ft | 468 kts | 260° |
| 2026-04-21 09:31 | 24.36090 | 61.14556 | 39834 ft | 468 kts | 260° |
| 2026-04-21 09:31 | 24.34648 | 61.07602 | 39836 ft | 468 kts | 260° |
| 2026-04-21 09:32 | 24.33195 | 61.00649 | 39830 ft | 468 kts | 260° |
| 2026-04-21 09:32 | 24.31738 | 60.93699 | 39835 ft | 468 kts | 260° |
| 2026-04-21 09:33 | 24.30278 | 60.86750 | 39829 ft | 468 kts | 260° |
| 2026-04-21 09:33 | 24.28814 | 60.79802 | 39828 ft | 468 kts | 260° |
| 2026-04-21 09:34 | 24.27348 | 60.72856 | 39824 ft | 468 kts | 260° |
| 2026-04-21 09:34 | 24.25878 | 60.65913 | 39829 ft | 468 kts | 260° |
| 2026-04-21 09:35 | 24.24404 | 60.58964 | 39823 ft | 468 kts | 260° |
| 2026-04-21 09:35 | 24.22928 | 60.52023 | 39823 ft | 468 kts | 260° |
| 2026-04-21 09:36 | 24.21447 | 60.45075 | 39819 ft | 468 kts | 261° |
| 2026-04-21 09:36 | 24.19965 | 60.38140 | 39820 ft | 468 kts | 261° |
| 2026-04-21 09:37 | 24.18479 | 60.31202 | 39820 ft | 467 kts | 261° |
| 2026-04-21 09:37 | 24.16992 | 60.24274 | 39821 ft | 468 kts | 261° |
| 2026-04-21 09:38 | 24.15500 | 60.17342 | 39817 ft | 468 kts | 261° |
| 2026-04-21 09:38 | 24.14007 | 60.10426 | 39817 ft | 466 kts | 261° |
| 2026-04-21 09:39 | 24.12518 | 60.03540 | 39812 ft | 465 kts | 261° |
| 2026-04-21 09:39 | 24.11028 | 59.96658 | 39813 ft | 465 kts | 261° |
| 2026-04-21 09:40 | 24.09535 | 59.89779 | 39813 ft | 465 kts | 261° |
| 2026-04-21 09:40 | 24.08038 | 59.82910 | 39811 ft | 462 kts | 262° |
| 2026-04-21 09:41 | 24.06548 | 59.76085 | 39809 ft | 461 kts | 262° |
| 2026-04-21 09:41 | 24.05067 | 59.69303 | 39806 ft | 461 kts | 262° |
| 2026-04-21 09:42 | 24.03573 | 59.62484 | 39806 ft | 461 kts | 262° |
| 2026-04-21 09:42 | 24.02076 | 59.55671 | 39807 ft | 460 kts | 262° |
| 2026-04-21 09:43 | 24.00581 | 59.48883 | 39805 ft | 459 kts | 262° |
| 2026-04-21 09:43 | 23.99086 | 59.42100 | 39802 ft | 459 kts | 262° |
| 2026-04-21 09:44 | 23.97587 | 59.35321 | 39807 ft | 459 kts | 262° |
| 2026-04-21 09:44 | 23.96085 | 59.28543 | 39803 ft | 458 kts | 262° |
| 2026-04-21 09:45 | 23.94585 | 59.21794 | 39812 ft | 456 kts | 262° |
| 2026-04-21 09:45 | 23.93682 | 59.15019 | 39808 ft | 446 kts | 275° |
| 2026-04-21 09:46 | 23.94516 | 59.08419 | 39809 ft | 435 kts | 290° |
| 2026-04-21 09:46 | 23.96395 | 59.02135 | 39796 ft | 435 kts | 292° |
| 2026-04-21 09:47 | 23.98429 | 58.95929 | 39803 ft | 433 kts | 293° |
| 2026-04-21 09:47 | 24.00454 | 58.89737 | 39822 ft | 432 kts | 292° |
| 2026-04-21 09:48 | 24.02449 | 58.83539 | 39802 ft | 432 kts | 292° |
| 2026-04-21 09:48 | 24.04433 | 58.77324 | 39806 ft | 433 kts | 292° |
| 2026-04-21 09:49 | 24.06412 | 58.71110 | 39807 ft | 432 kts | 292° |
| 2026-04-21 09:49 | 24.08389 | 58.64894 | 39805 ft | 432 kts | 292° |
| 2026-04-21 09:50 | 24.10364 | 58.58678 | 39808 ft | 432 kts | 292° |
| 2026-04-21 09:50 | 24.12338 | 58.52460 | 39807 ft | 432 kts | 292° |
| 2026-04-21 09:51 | 24.14308 | 58.46239 | 39802 ft | 432 kts | 292° |
| 2026-04-21 09:51 | 24.16266 | 58.40042 | 39816 ft | 430 kts | 292° |
| 2026-04-21 09:52 | 24.18218 | 58.33861 | 39803 ft | 429 kts | 292° |
| 2026-04-21 09:52 | 24.20166 | 58.27682 | 39802 ft | 429 kts | 292° |
| 2026-04-21 09:53 | 24.22099 | 58.21541 | 39803 ft | 429 kts | 292° |
| 2026-04-21 09:53 | 24.24040 | 58.15364 | 39806 ft | 427 kts | 292° |
| 2026-04-21 09:54 | 24.25968 | 58.09217 | 39807 ft | 426 kts | 292° |
| 2026-04-21 09:54 | 24.27891 | 58.03077 | 39801 ft | 426 kts | 292° |
| 2026-04-21 09:55 | 24.29814 | 57.96930 | 39800 ft | 426 kts | 292° |
| 2026-04-21 09:55 | 24.31734 | 57.90783 | 39807 ft | 426 kts | 292° |
| 2026-04-21 09:56 | 24.33643 | 57.84655 | 39804 ft | 424 kts | 291° |
| 2026-04-21 09:56 | 24.35546 | 57.78543 | 39611 ft | 423 kts | 291° |
| 2026-04-21 09:57 | 24.36494 | 57.75491 | 39386 ft | 422 kts | 291° |
| 2026-04-21 09:57 | 24.37440 | 57.72445 | 39148 ft | 422 kts | 291° |
| 2026-04-21 09:57 | 24.38384 | 57.69406 | 38920 ft | 421 kts | 291° |
| 2026-04-21 09:57 | 24.39327 | 57.66366 | 38695 ft | 421 kts | 291° |
| 2026-04-21 09:58 | 24.40269 | 57.63326 | 38465 ft | 419 kts | 291° |
| 2026-04-21 09:58 | 24.41202 | 57.60311 | 38197 ft | 417 kts | 291° |
| 2026-04-21 09:58 | 24.42133 | 57.57302 | 37930 ft | 417 kts | 291° |
| 2026-04-21 09:58 | 24.43069 | 57.54280 | 37660 ft | 420 kts | 291° |
| 2026-04-21 09:59 | 24.44012 | 57.51232 | 37394 ft | 423 kts | 291° |
| 2026-04-21 09:59 | 24.44957 | 57.48177 | 37023 ft | 422 kts | 290° |
| 2026-04-21 09:59 | 24.45894 | 57.45139 | 36444 ft | 420 kts | 290° |
| 2026-04-21 09:59 | 24.46830 | 57.42100 | 35809 ft | 420 kts | 290° |
| 2026-04-21 10:00 | 24.47766 | 57.39061 | 35209 ft | 420 kts | 289° |
| 2026-04-21 10:00 | 24.48686 | 57.36071 | 34735 ft | 418 kts | 289° |
| 2026-04-21 10:00 | 24.49614 | 57.33055 | 34224 ft | 417 kts | 288° |
| 2026-04-21 10:00 | 24.50540 | 57.30040 | 33701 ft | 416 kts | 288° |
| 2026-04-21 10:01 | 24.51462 | 57.27033 | 33166 ft | 416 kts | 288° |
| 2026-04-21 10:01 | 24.52381 | 57.24031 | 32645 ft | 414 kts | 288° |
| 2026-04-21 10:01 | 24.53297 | 57.21039 | 32139 ft | 413 kts | 288° |
| 2026-04-21 10:01 | 24.54210 | 57.18057 | 31635 ft | 410 kts | 288° |
| 2026-04-21 10:02 | 24.56017 | 57.12147 | 30639 ft | 406 kts | 288° |
| 2026-04-21 10:02 | 24.56914 | 57.09211 | 30143 ft | 405 kts | 288° |
| 2026-04-21 10:02 | 24.57809 | 57.06278 | 29609 ft | 404 kts | 288° |
| 2026-04-21 10:03 | 24.58699 | 57.03363 | 29088 ft | 401 kts | 288° |
| 2026-04-21 10:03 | 24.59582 | 57.00468 | 28602 ft | 398 kts | 288° |
| 2026-04-21 10:03 | 24.60457 | 56.97593 | 28112 ft | 396 kts | 287° |
| 2026-04-21 10:03 | 24.61328 | 56.94732 | 27617 ft | 393 kts | 287° |
| 2026-04-21 10:04 | 24.62192 | 56.91891 | 27138 ft | 391 kts | 287° |
| 2026-04-21 10:04 | 24.63051 | 56.89065 | 26644 ft | 389 kts | 287° |
| 2026-04-21 10:04 | 24.63911 | 56.86254 | 26155 ft | 387 kts | 288° |
| 2026-04-21 10:04 | 24.65031 | 56.83564 | 25671 ft | 386 kts | 296° |
| 2026-04-21 10:05 | 24.66334 | 56.80982 | 25184 ft | 386 kts | 297° |
| 2026-04-21 10:05 | 24.67690 | 56.78446 | 24688 ft | 385 kts | 298° |
| 2026-04-21 10:05 | 24.69077 | 56.75932 | 24191 ft | 384 kts | 299° |
| 2026-04-21 10:05 | 24.70471 | 56.73434 | 23689 ft | 383 kts | 299° |
| 2026-04-21 10:06 | 24.71869 | 56.70935 | 23146 ft | 383 kts | 299° |
| 2026-04-21 10:06 | 24.73258 | 56.68441 | 22610 ft | 381 kts | 299° |
| 2026-04-21 10:06 | 24.74636 | 56.65956 | 22107 ft | 379 kts | 298° |
| 2026-04-21 10:06 | 24.76001 | 56.63486 | 21581 ft | 377 kts | 298° |
| 2026-04-21 10:07 | 24.77359 | 56.61021 | 21087 ft | 376 kts | 298° |
| 2026-04-21 10:07 | 24.78710 | 56.58565 | 20581 ft | 375 kts | 298° |
| 2026-04-21 10:07 | 24.80058 | 56.56111 | 20069 ft | 374 kts | 299° |
| 2026-04-21 10:07 | 24.81403 | 56.53663 | 19558 ft | 373 kts | 299° |
| 2026-04-21 10:08 | 24.82742 | 56.51222 | 19066 ft | 372 kts | 299° |
| 2026-04-21 10:08 | 24.84080 | 56.48785 | 18542 ft | 372 kts | 299° |
| 2026-04-21 10:08 | 24.85415 | 56.46352 | 18032 ft | 371 kts | 299° |
| 2026-04-21 10:08 | 24.86746 | 56.43924 | 17486 ft | 369 kts | 300° |
| 2026-04-21 10:09 | 24.87836 | 56.41402 | 16981 ft | 363 kts | 287° |
| 2026-04-21 10:09 | 24.88320 | 56.38698 | 16480 ft | 358 kts | 274° |
| 2026-04-21 10:09 | 24.88423 | 56.35970 | 15979 ft | 355 kts | 269° |
| 2026-04-21 10:09 | 24.88354 | 56.33267 | 15498 ft | 352 kts | 266° |
| 2026-04-21 10:10 | 24.88199 | 56.30587 | 15025 ft | 349 kts | 265° |
| 2026-04-21 10:10 | 24.88049 | 56.27926 | 14531 ft | 348 kts | 268° |
| 2026-04-21 10:10 | 24.88339 | 56.25288 | 14060 ft | 348 kts | 283° |
| 2026-04-21 10:10 | 24.89243 | 56.22823 | 13561 ft | 348 kts | 295° |
| 2026-04-21 10:11 | 24.90375 | 56.20490 | 13284 ft | 339 kts | 297° |
| 2026-04-21 10:11 | 24.91499 | 56.18274 | 13166 ft | 325 kts | 297° |
| 2026-04-21 10:11 | 24.92583 | 56.16151 | 13048 ft | 311 kts | 297° |
| 2026-04-21 10:11 | 24.93624 | 56.14117 | 12932 ft | 299 kts | 297° |
| 2026-04-21 10:12 | 24.94626 | 56.12161 | 12805 ft | 287 kts | 297° |
| 2026-04-21 10:12 | 24.95600 | 56.10259 | 12478 ft | 284 kts | 297° |
| 2026-04-21 10:12 | 24.96571 | 56.08366 | 12074 ft | 283 kts | 297° |
| 2026-04-21 10:12 | 24.97615 | 56.06575 | 11736 ft | 281 kts | 307° |
| 2026-04-21 10:13 | 24.98874 | 56.04955 | 11546 ft | 278 kts | 310° |
| 2026-04-21 10:13 | 25.00166 | 56.03378 | 11353 ft | 277 kts | 310° |
| 2026-04-21 10:13 | 25.01473 | 56.01791 | 11127 ft | 275 kts | 310° |
| 2026-04-21 10:13 | 25.02738 | 56.00248 | 10923 ft | 274 kts | 310° |
| 2026-04-21 10:14 | 25.04014 | 55.98689 | 10802 ft | 274 kts | 310° |
| 2026-04-21 10:14 | 25.05288 | 55.97131 | 10674 ft | 274 kts | 310° |
| 2026-04-21 10:14 | 25.06563 | 55.95575 | 10485 ft | 273 kts | 311° |
| 2026-04-21 10:14 | 25.07830 | 55.94028 | 10283 ft | 271 kts | 310° |
| 2026-04-21 10:15 | 25.09087 | 55.92484 | 10078 ft | 270 kts | 310° |
| 2026-04-21 10:15 | 25.10338 | 55.90948 | 9879 ft | 269 kts | 310° |
| 2026-04-21 10:15 | 25.11586 | 55.89415 | 9675 ft | 268 kts | 310° |
| 2026-04-21 10:15 | 25.12825 | 55.87892 | 9451 ft | 265 kts | 310° |
| 2026-04-21 10:16 | 25.14057 | 55.86379 | 9253 ft | 265 kts | 309° |
| 2026-04-21 10:16 | 25.15277 | 55.84860 | 9045 ft | 264 kts | 307° |
| 2026-04-21 10:16 | 25.15995 | 55.83781 | 8914 ft | 262 kts | 301° |
| 2026-04-21 10:16 | 25.16965 | 55.82090 | 8727 ft | 261 kts | 300° |
| 2026-04-21 10:17 | 25.17919 | 55.80377 | 8532 ft | 261 kts | 299° |
| 2026-04-21 10:17 | 25.18865 | 55.78672 | 8329 ft | 259 kts | 299° |
| 2026-04-21 10:17 | 25.19810 | 55.76977 | 8116 ft | 260 kts | 299° |
| 2026-04-21 10:17 | 25.20760 | 55.75264 | 7933 ft | 263 kts | 300° |
| 2026-04-21 10:18 | 25.21716 | 55.73544 | 7737 ft | 262 kts | 299° |
| 2026-04-21 10:18 | 25.22666 | 55.71831 | 7535 ft | 261 kts | 300° |
| 2026-04-21 10:18 | 25.23618 | 55.70128 | 7364 ft | 256 kts | 300° |
| 2026-04-21 10:18 | 25.24538 | 55.68484 | 7203 ft | 247 kts | 300° |
| 2026-04-21 10:19 | 25.25426 | 55.66894 | 7019 ft | 240 kts | 300° |
| 2026-04-21 10:19 | 25.26304 | 55.65326 | 6832 ft | 240 kts | 300° |
| 2026-04-21 10:19 | 25.27181 | 55.63757 | 6617 ft | 240 kts | 300° |
| 2026-04-21 10:19 | 25.28055 | 55.62179 | 6428 ft | 241 kts | 300° |
| 2026-04-21 10:20 | 25.28912 | 55.60591 | 6241 ft | 240 kts | 296° |
| 2026-04-21 10:20 | 25.29358 | 55.58835 | 6050 ft | 239 kts | 268° |
| 2026-04-21 10:20 | 25.28910 | 55.57119 | 5944 ft | 234 kts | 234° |
| 2026-04-21 10:20 | 25.27739 | 55.55896 | 5892 ft | 233 kts | 212° |
| 2026-04-21 10:21 | 25.26333 | 55.55000 | 5793 ft | 234 kts | 202° |
| 2026-04-21 10:21 | 25.24749 | 55.54682 | 5741 ft | 232 kts | 174° |
| 2026-04-21 10:21 | 25.23266 | 55.55300 | 5674 ft | 230 kts | 142° |
| 2026-04-21 10:21 | 25.22236 | 55.56616 | 5619 ft | 231 kts | 123° |
| 2026-04-21 10:22 | 25.21387 | 55.58146 | 5540 ft | 231 kts | 121° |
| 2026-04-21 10:22 | 25.20568 | 55.59672 | 5468 ft | 231 kts | 121° |
| 2026-04-21 10:22 | 25.19751 | 55.61176 | 5393 ft | 232 kts | 121° |
| 2026-04-21 10:22 | 25.18920 | 55.62699 | 5342 ft | 231 kts | 121° |
| 2026-04-21 10:23 | 25.18084 | 55.64211 | 5276 ft | 231 kts | 121° |
| 2026-04-21 10:23 | 25.17245 | 55.65721 | 5208 ft | 230 kts | 121° |
| 2026-04-21 10:23 | 25.16408 | 55.67224 | 5127 ft | 229 kts | 121° |
| 2026-04-21 10:23 | 25.15575 | 55.68727 | 5079 ft | 229 kts | 121° |
| 2026-04-21 10:24 | 25.14739 | 55.70227 | 5011 ft | 230 kts | 121° |
| 2026-04-21 10:24 | 25.13898 | 55.71730 | 4946 ft | 230 kts | 121° |
| 2026-04-21 10:24 | 25.13060 | 55.73230 | 4877 ft | 229 kts | 121° |
| 2026-04-21 10:24 | 25.12226 | 55.74725 | 4790 ft | 228 kts | 121° |
| 2026-04-21 10:25 | 25.11393 | 55.76215 | 4745 ft | 228 kts | 121° |
| 2026-04-21 10:25 | 25.10561 | 55.77701 | 4688 ft | 224 kts | 121° |
| 2026-04-21 10:25 | 25.09763 | 55.79126 | 4579 ft | 213 kts | 121° |
| 2026-04-21 10:25 | 25.08992 | 55.80507 | 4510 ft | 210 kts | 121° |
| 2026-04-21 10:26 | 25.08224 | 55.81886 | 4484 ft | 212 kts | 121° |
| 2026-04-21 10:26 | 25.07449 | 55.83268 | 4433 ft | 212 kts | 121° |
| 2026-04-21 10:26 | 25.06611 | 55.84611 | 4367 ft | 213 kts | 131° |
| 2026-04-21 10:26 | 25.05352 | 55.85428 | 4304 ft | 213 kts | 169° |
| 2026-04-21 10:27 | 25.03911 | 55.85197 | 4263 ft | 212 kts | 206° |
| 2026-04-21 10:27 | 25.02632 | 55.84402 | 4209 ft | 212 kts | 212° |
| 2026-04-21 10:27 | 25.01414 | 55.83477 | 4134 ft | 213 kts | 221° |
| 2026-04-21 10:27 | 25.00617 | 55.82138 | 4076 ft | 210 kts | 257° |
| 2026-04-21 10:28 | 25.00713 | 55.80576 | 4016 ft | 206 kts | 294° |
| 2026-04-21 10:28 | 25.01388 | 55.79189 | 3972 ft | 206 kts | 303° |
| 2026-04-21 10:28 | 25.02157 | 55.77858 | 3937 ft | 207 kts | 305° |
| 2026-04-21 10:28 | 25.02932 | 55.76519 | 3850 ft | 207 kts | 305° |
| 2026-04-21 10:29 | 25.03703 | 55.75181 | 3781 ft | 207 kts | 305° |
| 2026-04-21 10:29 | 25.04469 | 55.73838 | 3745 ft | 207 kts | 304° |
| 2026-04-21 10:29 | 25.05292 | 55.72544 | 3687 ft | 206 kts | 307° |
| 2026-04-21 10:29 | 25.06085 | 55.71228 | 3636 ft | 205 kts | 306° |
| 2026-04-21 10:30 | 25.06845 | 55.69922 | 3603 ft | 205 kts | 305° |
| 2026-04-21 10:30 | 25.07595 | 55.68591 | 3547 ft | 204 kts | 304° |
| 2026-04-21 10:30 | 25.08329 | 55.67252 | 3492 ft | 205 kts | 304° |
| 2026-04-21 10:30 | 25.09058 | 55.65897 | 3373 ft | 206 kts | 303° |
| 2026-04-21 10:31 | 25.09787 | 55.64533 | 3320 ft | 207 kts | 303° |
| 2026-04-21 10:31 | 25.10517 | 55.63164 | 3254 ft | 207 kts | 304° |
| 2026-04-21 10:31 | 25.11247 | 55.61802 | 3214 ft | 206 kts | 304° |
| 2026-04-21 10:31 | 25.11977 | 55.60452 | 3159 ft | 204 kts | 304° |
| 2026-04-21 10:32 | 25.12709 | 55.59110 | 3102 ft | 205 kts | 305° |
| 2026-04-21 10:32 | 25.13451 | 55.57771 | 3072 ft | 204 kts | 305° |
| 2026-04-21 10:32 | 25.14190 | 55.56443 | 3025 ft | 202 kts | 305° |
| 2026-04-21 10:32 | 25.14913 | 55.55144 | 2992 ft | 196 kts | 306° |
| 2026-04-21 10:33 | 25.15629 | 55.53863 | 2992 ft | 196 kts | 306° |
| 2026-04-21 10:33 | 25.16347 | 55.52581 | 2989 ft | 195 kts | 306° |
| 2026-04-21 10:33 | 25.17034 | 55.51342 | 2951 ft | 185 kts | 305° |
| 2026-04-21 10:33 | 25.17698 | 55.50140 | 2637 ft | 181 kts | 305° |
| 2026-04-21 10:34 | 25.18354 | 55.48953 | 2201 ft | 181 kts | 306° |
| 2026-04-21 10:34 | 25.19010 | 55.47774 | 1760 ft | 179 kts | 305° |
| 2026-04-21 10:34 | 25.19648 | 55.46624 | 1493 ft | 170 kts | 305° |
| 2026-04-21 10:34 | 25.20239 | 55.45551 | 1268 ft | 158 kts | 304° |
| 2026-04-21 10:35 | 25.20797 | 55.44540 | 1049 ft | 150 kts | 304° |
| 2026-04-21 10:35 | 25.21328 | 55.43582 | 885 ft | 144 kts | 304° |
| 2026-04-21 10:35 | 25.21845 | 55.42652 | 706 ft | 141 kts | 303° |
| 2026-04-21 10:35 | 25.22341 | 55.41733 | 525 ft | 137 kts | 302° |
| 2026-04-21 10:36 | 25.22801 | 55.40835 | 362 ft | 133 kts | 305° |
| 2026-04-21 10:36 | 25.23311 | 55.39974 | 172 ft | 135 kts | 303° |
| 2026-04-21 10:36 | 25.23801 | 55.39093 | 37 ft | 134 kts | 303° |
| 2026-04-21 10:36 | 25.24254 | 55.38299 | 28 ft | 107 kts | 302° |
| 2026-04-21 10:37 | 25.24592 | 55.37690 | 28 ft | 80 kts | 300° |
| 2026-04-21 10:37 | 25.24763 | 55.37338 | 28 ft | 36 kts | 285° |
| 2026-04-21 10:37 | 25.24780 | 55.37190 | 28 ft | 18 kts | 273° |
| 2026-04-21 10:37 | 25.24788 | 55.37044 | 28 ft | 20 kts | 273° |
| 2026-04-21 10:38 | 25.24717 | 55.36930 | 28 ft | 19 kts | 188° |
| 2026-04-21 10:38 | 25.24685 | 55.36933 | 28 ft | 7 kts | 172° |
| 2026-04-21 10:38 | 25.24626 | 55.36946 | 28 ft | 10 kts | 167° |
| 2026-04-21 10:38 | 25.24577 | 55.36958 | 28 ft | 5 kts | 167° |
| 2026-04-21 10:39 | 25.24573 | 55.36959 | 28 ft | 1 kts | 168° |
| 2026-04-21 10:39 | 25.24562 | 55.36962 | 28 ft | 2 kts | 167° |
| 2026-04-21 10:39 | 25.24554 | 55.36964 | 28 ft | 0 kts | 167° |